Time;durP1;ratioP1;P1;durP2;ratioP2;P2;SDS_P1;SDS_P2;PMS_P1;PMS_P2;Temp;Humidity;BMP_temperature;BMP_pressure;BME280_temperature;BME280_humidity;BME280_pressure;Samples;Min_cycle;Max_cycle;Signal;HPM_P1;HPM_P2
2022/04/25 00:01:26;;;;;;;16.63;13.40;;;11.70;99.90;;;;;;5074384;28;20446;-86
2022/04/25 00:03:55;;;;;;;17.13;14.93;;;11.70;99.90;;;;;;5074267;28;20430;-86
2022/04/25 00:06:22;;;;;;;21.40;16.43;;;11.70;99.90;;;;;;5074213;28;20560;-86
2022/04/25 00:08:57;;;;;;;18.97;15.23;;;11.70;99.90;;;;;;5075748;28;20463;-85
2022/04/25 00:11:26;;;;;;;20.90;15.87;;;11.70;99.90;;;;;;5075477;28;20442;-85
2022/04/25 00:13:53;;;;;;;21.07;15.87;;;11.70;99.90;;;;;;5073478;28;20964;-86
2022/04/25 00:16:20;;;;;;;28.50;21.40;;;11.80;99.90;;;;;;5074854;28;20508;-85
2022/04/25 00:18:49;;;;;;;16.47;13.43;;;11.80;99.90;;;;;;5089797;28;20451;-85
2022/04/25 00:21:15;;;;;;;20.60;15.57;;;11.80;99.90;;;;;;5089117;28;20994;-85
2022/04/25 00:23:54;;;;;;;18.47;15.20;;;11.70;99.90;;;;;;5084045;28;20448;-86
2022/04/25 00:26:21;;;;;;;16.90;15.00;;;11.70;99.90;;;;;;5089105;28;20402;-86
2022/04/25 00:28:52;;;;;;;16.07;14.37;;;11.70;99.90;;;;;;5080819;28;20509;-86
2022/04/25 00:31:19;;;;;;;18.27;15.03;;;11.70;99.90;;;;;;5087979;28;20431;-85
2022/04/25 00:33:51;;;;;;;21.63;17.47;;;11.70;99.90;;;;;;5080867;28;20497;-86
2022/04/25 00:36:18;;;;;;;22.63;18.53;;;11.70;99.90;;;;;;5076194;28;20454;-86
2022/04/25 00:38:48;;;;;;;21.90;17.00;;;11.70;99.90;;;;;;5091066;28;20410;-85
2022/04/25 00:41:16;;;;;;;18.63;16.27;;;11.90;99.90;;;;;;5080886;28;20449;-87
2022/04/25 00:43:45;;;;;;;19.67;16.50;;;11.90;99.90;;;;;;5078813;28;20461;-86
2022/04/25 00:46:25;;;;;;;21.97;17.10;;;11.90;99.90;;;;;;5079424;28;21013;-84
2022/04/25 00:48:53;;;;;;;19.63;16.53;;;11.80;99.90;;;;;;5096704;28;20453;-84
2022/04/25 00:51:20;;;;;;;23.83;19.20;;;11.70;99.90;;;;;;5098755;28;20468;-84
2022/04/25 00:53:49;;;;;;;22.20;18.50;;;11.70;99.90;;;;;;5083796;28;20793;-85
2022/04/25 00:56:17;;;;;;;22.63;18.60;;;11.60;99.90;;;;;;5077579;28;20451;-86
2022/04/25 00:58:45;;;;;;;22.90;19.70;;;11.60;99.90;;;;;;5076988;28;20474;-85
2022/04/25 01:01:13;;;;;;;23.80;19.10;;;11.50;99.90;;;;;;5076969;28;20479;-86
2022/04/25 01:03:41;;;;;;;23.30;20.30;;;11.70;99.90;;;;;;5080480;28;20422;-85
2022/04/25 01:06:08;;;;;;;24.10;19.67;;;11.80;99.90;;;;;;5086584;28;20419;-85
2022/04/25 01:08:37;;;;;;;23.20;20.40;;;11.70;99.90;;;;;;5094025;28;20471;-85
2022/04/25 01:11:05;;;;;;;23.37;20.20;;;11.60;99.90;;;;;;5083441;28;20781;-85
2022/04/25 01:13:32;;;;;;;22.30;19.90;;;11.50;99.90;;;;;;5097356;28;20479;-85
2022/04/25 01:15:59;;;;;;;22.37;18.67;;;11.60;99.90;;;;;;5084709;28;20422;-86
2022/04/25 01:18:26;;;;;;;23.33;19.63;;;11.70;99.90;;;;;;5081505;28;20434;-87
2022/04/25 01:20:57;;;;;;;22.33;19.90;;;11.60;99.90;;;;;;5079878;28;20488;-87
2022/04/25 01:28:55;;;;;;;24.67;20.33;;;11.70;99.90;;;;;;5076728;28;20780;-86
2022/04/25 01:31:22;;;;;;;24.57;21.23;;;11.80;99.90;;;;;;5075747;28;20509;-86
2022/04/25 01:33:50;;;;;;;22.87;20.20;;;11.70;99.90;;;;;;5075873;28;20455;-86
2022/04/25 01:36:17;;;;;;;23.33;20.23;;;11.60;99.90;;;;;;5076205;28;20463;-86
2022/04/25 01:38:46;;;;;;;24.60;20.57;;;11.60;99.90;;;;;;5077149;28;20494;-86
2022/04/25 01:41:13;;;;;;;23.53;21.03;;;11.60;99.90;;;;;;5076084;28;20525;-86
2022/04/25 01:43:39;;;;;;;23.17;20.77;;;11.50;99.90;;;;;;5085664;28;20464;-85
2022/04/25 01:46:06;;;;;;;26.23;21.57;;;11.50;99.90;;;;;;5098447;28;20477;-86
2022/04/25 01:48:33;;;;;;;23.63;20.60;;;11.50;99.90;;;;;;5088173;28;20526;-86
2022/04/25 01:51:00;;;;;;;24.83;20.73;;;11.50;99.90;;;;;;5083115;28;20503;-85
2022/04/25 01:53:27;;;;;;;24.43;20.40;;;11.60;99.90;;;;;;5097799;28;20431;-86
2022/04/25 01:55:55;;;;;;;26.53;22.67;;;11.60;99.90;;;;;;5098104;28;20406;-87
2022/04/25 01:58:24;;;;;;;25.83;21.60;;;11.50;99.90;;;;;;5096490;28;20805;-87
2022/04/25 02:00:51;;;;;;;26.73;22.70;;;11.40;99.90;;;;;;5081852;28;20506;-86
2022/04/25 02:03:18;;;;;;;25.90;20.63;;;11.30;99.90;;;;;;5080736;28;20432;-86
2022/04/25 02:05:53;;;;;;;26.63;21.87;;;11.30;99.90;;;;;;5089203;28;20458;-87
2022/04/25 02:08:20;;;;;;;24.63;22.03;;;11.40;99.90;;;;;;5079389;28;20445;-86
2022/04/25 02:11:19;;;;;;;26.23;23.43;;;11.40;99.90;;;;;;5082249;28;20476;-86
2022/04/25 02:13:35;;;;;;;26.30;21.13;;;11.50;99.90;;;;;;5084159;28;20490;-85
2022/04/25 02:16:03;;;;;;;26.27;23.10;;;11.50;99.90;;;;;;5086609;28;20462;-86
2022/04/25 02:18:30;;;;;;;24.07;21.43;;;11.40;99.90;;;;;;5093096;28;20451;-85
2022/04/25 02:20:57;;;;;;;26.60;22.17;;;11.40;99.90;;;;;;5096596;28;20480;-86
2022/04/25 02:23:24;;;;;;;27.23;23.17;;;11.50;99.90;;;;;;5096095;28;20444;-86
2022/04/25 02:25:51;;;;;;;26.87;22.37;;;11.40;99.90;;;;;;5092053;28;20423;-86
2022/04/25 02:28:18;;;;;;;24.33;21.70;;;11.50;99.90;;;;;;5075940;28;20430;-86
2022/04/25 02:30:49;;;;;;;25.00;20.70;;;11.50;99.90;;;;;;5076688;28;20480;-86
2022/04/25 02:33:16;;;;;;;25.03;20.70;;;11.50;99.90;;;;;;5077353;28;20448;-86
2022/04/25 02:35:43;;;;;;;23.80;21.27;;;11.50;99.90;;;;;;5078193;28;20439;-86
2022/04/25 02:38:10;;;;;;;27.03;21.47;;;11.50;99.90;;;;;;5076446;28;20432;-86
2022/04/25 02:40:37;;;;;;;25.70;22.13;;;11.40;99.90;;;;;;5074300;28;20468;-86
2022/04/25 02:43:04;;;;;;;25.43;21.37;;;11.40;99.90;;;;;;5074289;28;20448;-86
2022/04/25 02:45:31;;;;;;;25.37;21.90;;;11.40;99.90;;;;;;5074714;28;20447;-86
2022/04/25 02:48:00;;;;;;;26.77;22.13;;;11.20;99.90;;;;;;5080278;28;20422;-86
2022/04/25 02:50:27;;;;;;;23.80;21.17;;;11.20;99.90;;;;;;5083947;28;20917;-86
2022/04/25 02:52:54;;;;;;;25.77;21.07;;;11.40;99.90;;;;;;5085789;28;20452;-87
2022/04/25 02:55:21;;;;;;;23.80;20.40;;;11.50;99.90;;;;;;5079888;28;20440;-86
2022/04/25 02:57:48;;;;;;;26.80;21.77;;;11.50;99.90;;;;;;5075599;28;20509;-86
2022/04/25 03:00:16;;;;;;;23.97;20.40;;;11.60;99.90;;;;;;5074465;28;20434;-86
2022/04/25 03:02:42;;;;;;;26.63;22.30;;;11.50;99.90;;;;;;5074640;28;20486;-86
2022/04/25 03:05:13;;;;;;;25.70;22.57;;;11.40;99.90;;;;;;5075571;28;20469;-86
2022/04/25 03:07:44;;;;;;;28.77;22.77;;;11.20;99.90;;;;;;5075908;28;20444;-86
2022/04/25 03:10:11;;;;;;;25.60;21.87;;;11.20;99.90;;;;;;5078996;28;20475;-85
2022/04/25 03:12:38;;;;;;;26.83;21.83;;;11.20;99.90;;;;;;5092209;28;20447;-85
2022/04/25 03:15:07;;;;;;;26.10;22.57;;;11.20;99.90;;;;;;5089866;28;20459;-86
2022/04/25 03:17:34;;;;;;;27.20;23.00;;;11.00;99.90;;;;;;5093710;28;20455;-86
2022/04/25 03:20:01;;;;;;;29.63;25.40;;;10.80;99.90;;;;;;5081646;28;20563;-85
2022/04/25 03:22:29;;;;;;;29.27;24.67;;;10.70;99.90;;;;;;5080245;28;20490;-85
2022/04/25 03:24:56;;;;;;;31.00;25.30;;;10.70;99.90;;;;;;5076313;28;20436;-86
2022/04/25 03:27:25;;;;;;;28.93;24.30;;;10.70;99.90;;;;;;5079249;28;20493;-86
2022/04/25 03:29:52;;;;;;;32.93;25.80;;;10.70;99.90;;;;;;5078122;28;20504;-86
2022/04/25 03:32:19;;;;;;;27.27;23.87;;;10.70;99.90;;;;;;5075829;28;20450;-85
2022/04/25 03:34:46;;;;;;;30.37;25.53;;;10.90;99.90;;;;;;5074141;28;20543;-86
2022/04/25 03:37:13;;;;;;;29.83;23.43;;;10.90;99.90;;;;;;5084879;28;20463;-84
2022/04/25 03:39:44;;;;;;;29.73;24.13;;;10.80;99.90;;;;;;5080038;28;20472;-86
2022/04/25 03:42:12;;;;;;;29.90;24.47;;;10.70;99.90;;;;;;5073913;28;20507;-86
2022/04/25 03:44:41;;;;;;;30.60;25.37;;;10.60;99.90;;;;;;5075469;28;20473;-85
2022/04/25 03:47:10;;;;;;;30.53;24.87;;;10.50;99.90;;;;;;5092866;28;20440;-86
2022/04/25 03:49:38;;;;;;;32.33;25.00;;;10.50;99.90;;;;;;5076638;28;20435;-86
2022/04/25 03:52:05;;;;;;;30.00;24.33;;;10.40;99.90;;;;;;5073496;28;20449;-86
2022/04/25 03:57:26;;;;;;;31.53;25.17;;;10.30;99.90;;;;;;5027772;28;20534;-86
2022/04/25 03:59:53;;;;;;;28.43;24.30;;;10.30;99.90;;;;;;5073193;28;21062;-86
2022/04/25 04:02:23;;;;;;;29.00;23.17;;;10.50;99.90;;;;;;5079740;28;20483;-86
2022/04/25 04:04:50;;;;;;;30.53;24.10;;;10.50;99.90;;;;;;5087090;28;20407;-85
2022/04/25 04:07:17;;;;;;;31.93;24.90;;;10.50;99.90;;;;;;5090101;28;20447;-85
2022/04/25 04:09:47;;;;;;;29.83;24.97;;;10.40;99.90;;;;;;5087417;28;20442;-86
2022/04/25 04:12:14;;;;;;;28.90;24.23;;;10.20;99.90;;;;;;5074600;28;20440;-85
2022/04/25 04:14:43;;;;;;;30.70;24.10;;;10.20;99.90;;;;;;5076459;28;20485;-85
2022/04/25 04:17:17;;;;;;;29.97;24.63;;;10.10;99.90;;;;;;5076920;28;20444;-85
2022/04/25 04:19:46;;;;;;;30.53;24.80;;;10.10;99.90;;;;;;5061587;28;152218;-86
2022/04/25 04:22:14;;;;;;;29.63;24.23;;;10.10;99.90;;;;;;5072792;28;20926;-85
2022/04/25 04:24:41;;;;;;;31.37;25.83;;;10.10;99.90;;;;;;5081473;28;20452;-85
2022/04/25 04:27:08;;;;;;;32.67;23.83;;;10.00;99.90;;;;;;5098819;28;20920;-85
2022/04/25 04:29:36;;;;;;;34.17;25.10;;;10.10;99.90;;;;;;5098639;28;20459;-84
2022/04/25 04:32:09;;;;;;;31.27;25.40;;;10.10;99.90;;;;;;5092074;28;20439;-85
2022/04/25 04:34:37;;;;;;;29.23;24.10;;;10.10;99.90;;;;;;5081105;28;20479;-85
2022/04/25 04:37:05;;;;;;;31.90;24.13;;;10.10;99.90;;;;;;5092110;28;20531;-85
2022/04/25 04:39:32;;;;;;;29.57;24.87;;;10.10;99.90;;;;;;5098509;28;20465;-85
2022/04/25 04:41:59;;;;;;;30.60;24.00;;;10.10;99.90;;;;;;5097334;28;20562;-86
2022/04/25 04:44:29;;;;;;;29.60;24.50;;;10.10;99.90;;;;;;5095115;28;20471;-86
2022/04/25 04:46:56;;;;;;;32.10;24.33;;;10.20;99.90;;;;;;5085231;28;20726;-86
2022/04/25 04:49:24;;;;;;;29.70;23.50;;;10.30;99.90;;;;;;5098780;28;20455;-86
2022/04/25 04:51:51;;;;;;;29.17;24.47;;;10.40;99.90;;;;;;5095837;28;20541;-86
2022/04/25 04:54:18;;;;;;;31.00;24.40;;;10.40;99.90;;;;;;5078723;28;20513;-86
2022/04/25 04:56:45;;;;;;;26.10;22.33;;;10.50;99.90;;;;;;5077590;28;20530;-86
2022/04/25 04:59:12;;;;;;;27.83;23.50;;;10.50;99.90;;;;;;5077281;28;20919;-87
2022/04/25 05:01:39;;;;;;;29.83;23.37;;;10.60;99.90;;;;;;5076426;28;20479;-86
2022/04/25 05:04:06;;;;;;;29.90;23.43;;;10.80;99.90;;;;;;5077807;28;20428;-86
2022/04/25 05:06:38;;;;;;;27.10;23.20;;;10.80;99.90;;;;;;5078877;28;20526;-86
2022/04/25 05:09:05;;;;;;;28.30;23.43;;;10.80;99.90;;;;;;5079751;28;20494;-86
2022/04/25 05:11:31;;;;;;;28.70;22.80;;;10.70;99.90;;;;;;5090361;28;20481;-86
2022/04/25 05:14:04;;;;;;;28.70;24.43;;;10.80;99.90;;;;;;5078556;28;20917;-85
2022/04/25 05:16:31;;;;;;;28.27;22.50;;;10.70;99.90;;;;;;5082574;28;20900;-85
2022/04/25 05:21:28;;;;;;;27.73;22.53;;;10.80;99.90;;;;;;5095049;28;20478;-88
2022/04/25 05:23:56;;;;;;;31.07;22.97;;;10.80;99.90;;;;;;5090468;28;20476;-88
2022/04/25 05:26:23;;;;;;;30.20;24.97;;;10.90;99.90;;;;;;5089218;28;20541;-87
2022/04/25 05:28:51;;;;;;;29.50;24.10;;;10.80;99.90;;;;;;5088368;28;20458;-88
2022/04/25 05:31:17;;;;;;;29.57;24.57;;;10.80;99.90;;;;;;5084958;28;20446;-88
2022/04/25 05:33:44;;;;;;;30.37;24.00;;;10.80;99.90;;;;;;5083980;28;20465;-89
2022/04/25 05:36:11;;;;;;;28.97;22.70;;;11.00;99.90;;;;;;5086722;28;20450;-88
2022/04/25 05:38:39;;;;;;;30.00;22.90;;;11.10;99.90;;;;;;5090927;28;20444;-85
2022/04/25 05:41:10;;;;;;;28.13;22.67;;;11.30;99.90;;;;;;5084854;28;20462;-89
2022/04/25 05:43:38;;;;;;;28.23;23.03;;;11.30;99.90;;;;;;5083225;28;20450;-87
2022/04/25 05:46:05;;;;;;;28.70;23.33;;;11.20;99.90;;;;;;5082332;28;20462;-88
2022/04/25 05:54:04;;;;;;;29.07;22.17;;;11.30;99.90;;;;;;5084075;28;20414;-88
2022/04/25 05:56:32;;;;;;;29.27;22.73;;;11.30;99.90;;;;;;5083768;28;20921;-88
2022/04/25 05:59:02;;;;;;;30.20;23.50;;;11.30;99.90;;;;;;5085057;28;20929;-87
2022/04/25 06:01:30;;;;;;;28.00;22.77;;;11.20;99.90;;;;;;5088176;28;20438;-86
2022/04/25 06:03:56;;;;;;;27.50;23.00;;;11.30;99.90;;;;;;5089157;28;20468;-88
2022/04/25 06:06:26;;;;;;;28.30;22.80;;;11.30;99.90;;;;;;5084042;28;20442;-87
2022/04/25 06:08:53;;;;;;;24.90;21.00;;;11.40;99.90;;;;;;5084146;28;20918;-88
2022/04/25 06:11:21;;;;;;;23.20;20.27;;;11.50;99.90;;;;;;5095690;28;20507;-87
2022/04/25 06:13:52;;;;;;;27.23;22.03;;;11.50;99.90;;;;;;5098565;28;20423;-87
2022/04/25 06:16:19;;;;;;;25.90;21.10;;;11.60;99.90;;;;;;5091585;28;20413;-89
2022/04/25 06:18:49;;;;;;;24.53;20.30;;;11.70;99.90;;;;;;5082332;28;20410;-88
2022/04/25 06:21:16;;;;;;;27.67;22.77;;;11.70;99.90;;;;;;5081531;28;20480;-87
2022/04/25 06:23:45;;;;;;;25.13;20.67;;;11.70;99.90;;;;;;5086864;28;20483;-87
2022/04/25 06:26:13;;;;;;;23.03;19.57;;;11.70;99.90;;;;;;5096753;28;20452;-86
2022/04/25 06:28:41;;;;;;;23.43;20.43;;;12.00;99.90;;;;;;5088972;28;20414;-88
2022/04/25 06:31:44;;;;;;;;;;;;;;;;;;;;;
2022/04/25 06:34:13;;;;;;;21.83;18.53;;;12.10;99.90;;;;;;5077086;28;20462;-86
2022/04/25 06:36:41;;;;;;;21.80;17.50;;;12.20;99.90;;;;;;5082504;28;20447;-87
2022/04/25 06:39:09;;;;;;;23.87;17.30;;;12.40;99.90;;;;;;5081965;28;20781;-86
2022/04/25 06:41:36;;;;;;;22.20;18.77;;;12.50;99.90;;;;;;5082810;28;20494;-88
2022/04/25 06:44:14;;;;;;;22.57;18.77;;;12.40;99.90;;;;;;5095746;28;20484;-87
2022/04/25 06:46:43;;;;;;;21.17;18.60;;;12.30;99.90;;;;;;5097842;28;20414;-87
2022/04/25 06:49:27;;;;;;;22.43;19.97;;;12.20;99.90;;;;;;5083235;28;20794;-86
2022/04/25 06:51:57;;;;;;;22.43;19.40;;;12.30;99.90;;;;;;5082647;28;20452;-87
2022/04/25 06:54:25;;;;;;;21.57;18.50;;;12.40;99.90;;;;;;5083494;28;20456;-88
2022/04/25 06:56:55;;;;;;;20.87;18.20;;;12.50;99.90;;;;;;5082143;28;20457;-86
2022/04/25 06:59:26;;;;;;;23.67;19.43;;;12.50;99.90;;;;;;5086096;28;20442;-87
2022/04/25 07:01:54;;;;;;;22.20;19.37;;;12.70;99.90;;;;;;5086870;28;20455;-86
2022/04/25 07:04:24;;;;;;;22.33;19.10;;;12.90;99.90;;;;;;5084404;28;20479;-87
2022/04/25 07:06:51;;;;;;;21.93;18.90;;;12.90;99.90;;;;;;5082700;28;20451;-88
2022/04/25 07:09:18;;;;;;;21.57;17.87;;;12.90;99.90;;;;;;5083048;28;20450;-86
2022/04/25 07:11:46;;;;;;;20.80;17.83;;;12.90;99.90;;;;;;5085906;28;20442;-88
2022/04/25 07:14:14;;;;;;;19.70;17.53;;;13.00;99.90;;;;;;5086278;28;20414;-86
2022/04/25 07:16:44;;;;;;;22.53;19.23;;;13.00;99.90;;;;;;5095507;28;20428;-87
2022/04/25 07:19:14;;;;;;;22.80;18.87;;;13.00;99.90;;;;;;5086466;28;20403;-87
2022/04/25 07:29:57;;;;;;;22.10;17.07;;;12.90;99.90;;;;;;5082761;28;20439;-87
2022/04/25 07:32:30;;;;;;;20.57;18.37;;;12.90;99.90;;;;;;5083514;28;20798;-87
2022/04/25 07:34:58;;;;;;;22.07;18.40;;;13.00;99.90;;;;;;5091343;28;20399;-88
2022/04/25 07:37:25;;;;;;;21.50;18.63;;;13.20;99.90;;;;;;5084242;28;20504;-86
2022/04/25 07:39:58;;;;;;;19.07;15.93;;;13.30;99.90;;;;;;5094505;28;20532;-87
2022/04/25 07:42:25;;;;;;;19.30;17.23;;;13.40;99.90;;;;;;5093892;28;20430;-87
2022/04/25 07:44:52;;;;;;;19.80;17.83;;;13.40;99.90;;;;;;5091242;28;20419;-85
2022/04/25 07:47:19;;;;;;;19.73;17.63;;;13.40;99.90;;;;;;5096232;28;20456;-86
2022/04/25 07:49:47;;;;;;;20.77;16.83;;;13.50;99.90;;;;;;5092041;28;20463;-85
2022/04/25 07:52:15;;;;;;;17.47;14.60;;;13.70;99.90;;;;;;5088345;28;20513;-87
2022/04/25 07:54:42;;;;;;;16.73;15.03;;;13.70;99.90;;;;;;5090419;28;20433;-88
2022/04/25 07:57:12;;;;;;;17.03;15.23;;;13.80;99.90;;;;;;5089333;28;20419;-88
2022/04/25 07:59:41;;;;;;;18.50;16.50;;;13.90;99.90;;;;;;5091800;28;20460;-88
2022/04/25 08:02:11;;;;;;;18.10;15.17;;;13.90;99.90;;;;;;5089251;28;20509;-88
2022/04/25 08:04:38;;;;;;;21.70;16.17;;;13.90;99.90;;;;;;5086458;28;20410;-86
2022/04/25 08:07:06;;;;;;;17.73;15.47;;;13.90;99.90;;;;;;5086415;28;20465;-87
2022/04/25 08:09:34;;;;;;;16.67;14.90;;;13.90;99.90;;;;;;5096050;28;20438;-87
2022/04/25 08:20:17;;;;;;;16.77;14.80;;;14.30;99.90;;;;;;5087472;28;20468;-86
2022/04/25 08:22:45;;;;;;;17.30;15.50;;;14.40;99.90;;;;;;5092329;28;20445;-88
2022/04/25 08:25:15;;;;;;;15.50;13.77;;;14.30;99.90;;;;;;5101335;28;20449;-87
2022/04/25 08:27:42;;;;;;;16.00;14.30;;;14.30;99.90;;;;;;5093819;28;20432;-87
2022/04/25 08:30:12;;;;;;;16.73;13.70;;;14.30;99.90;;;;;;5098654;28;20486;-88
2022/04/25 08:32:39;;;;;;;14.97;12.83;;;14.30;99.90;;;;;;5089787;28;20473;-86
2022/04/25 08:35:09;;;;;;;14.53;12.97;;;14.30;99.90;;;;;;5088229;28;20461;-88
2022/04/25 08:37:36;;;;;;;16.37;13.77;;;14.20;99.90;;;;;;5088083;28;20433;-88
2022/04/25 08:40:03;;;;;;;16.07;14.37;;;14.20;99.90;;;;;;5089596;28;20468;-87
2022/04/25 08:42:32;;;;;;;15.93;13.77;;;13.90;99.90;;;;;;5091736;28;20520;-87
2022/04/25 08:45:02;;;;;;;15.47;13.87;;;13.90;99.90;;;;;;5090812;28;20806;-86
2022/04/25 08:47:33;;;;;;;15.40;13.77;;;14.00;99.90;;;;;;5090140;28;20509;-85
2022/04/25 08:50:01;;;;;;;15.83;13.60;;;14.00;99.90;;;;;;5093214;28;20513;-87
2022/04/25 08:52:30;;;;;;;20.60;16.60;;;14.00;99.90;;;;;;5094769;28;21001;-86
2022/04/25 08:55:01;;;;;;;21.83;19.23;;;14.00;99.90;;;;;;5093568;28;20455;-87
2022/04/25 08:57:31;;;;;;;16.40;14.63;;;13.90;99.90;;;;;;5089149;28;20428;-87
2022/04/25 09:00:03;;;;;;;17.13;14.97;;;14.00;99.90;;;;;;5092817;28;20465;-86
2022/04/25 09:02:30;;;;;;;18.90;15.43;;;14.20;99.90;;;;;;5095218;28;20491;-86
2022/04/25 09:04:58;;;;;;;18.10;15.70;;;14.10;99.90;;;;;;5089271;28;20463;-86
2022/04/25 09:07:25;;;;;;;18.13;15.50;;;13.90;99.90;;;;;;5084529;28;20426;-87
2022/04/25 09:09:52;;;;;;;18.80;14.20;;;13.90;99.90;;;;;;5082643;28;20467;-86
2022/04/25 09:12:20;;;;;;;15.63;13.00;;;14.00;99.90;;;;;;5085957;28;20426;-87
2022/04/25 09:14:47;;;;;;;19.07;14.23;;;14.00;99.90;;;;;;5091206;28;20538;-87
2022/04/25 09:17:16;;;;;;;16.60;14.70;;;13.80;99.90;;;;;;5089304;28;20406;-87
2022/04/25 09:19:46;;;;;;;16.90;14.50;;;13.80;99.90;;;;;;5086709;28;20472;-86
2022/04/25 09:22:32;;;;;;;22.40;17.17;;;13.80;99.90;;;;;;5091858;28;20403;-86
2022/04/25 09:25:23;;;;;;;19.07;15.77;;;13.90;99.90;;;;;;5088865;28;20460;-87
2022/04/25 09:28:09;;;;;;;17.70;15.07;;;14.00;99.90;;;;;;5087090;28;20453;-85
2022/04/25 09:30:39;;;;;;;19.83;15.67;;;14.10;99.90;;;;;;5084625;28;20934;-87
2022/04/25 09:33:26;;;;;;;18.30;15.30;;;14.10;99.90;;;;;;5085390;28;20766;-85
2022/04/25 09:35:59;;;;;;;17.10;14.27;;;14.20;99.90;;;;;;5084329;28;20782;-88
2022/04/25 09:38:38;;;;;;;16.03;14.33;;;14.50;99.90;;;;;;5084085;28;20484;-86
2022/04/25 09:41:12;;;;;;;18.37;15.37;;;14.40;99.90;;;;;;5082823;28;20442;-87
2022/04/25 09:43:40;;;;;;;18.67;15.40;;;14.40;99.90;;;;;;5083752;28;20959;-85
2022/04/25 09:46:09;;;;;;;16.77;14.00;;;14.40;99.90;;;;;;5082623;28;20768;-86
2022/04/25 09:48:43;;;;;;;17.20;14.90;;;14.40;99.90;;;;;;5084658;28;20460;-86
2022/04/25 09:51:16;;;;;;;15.90;14.20;;;14.50;99.90;;;;;;5084749;28;20514;-86
2022/04/25 09:53:47;;;;;;;17.53;15.30;;;14.60;99.90;;;;;;5091245;28;20433;-85
2022/04/25 09:56:16;;;;;;;33.87;15.30;;;14.70;99.90;;;;;;5086874;28;20427;-86
2022/04/25 09:58:44;;;;;;;15.53;13.53;;;14.90;99.90;;;;;;5085039;28;20419;-87
2022/04/25 10:01:13;;;;;;;22.40;14.33;;;15.20;99.90;;;;;;5086066;28;20476;-86
2022/04/25 10:03:43;;;;;;;18.30;14.33;;;15.40;99.90;;;;;;5086098;28;20552;-87
2022/04/25 10:06:13;;;;;;;17.30;14.97;;;15.50;99.90;;;;;;5084253;28;20452;-88
2022/04/25 10:08:41;;;;;;;15.13;13.60;;;15.60;99.90;;;;;;5085808;28;20452;-86
2022/04/25 10:11:09;;;;;;;19.40;15.50;;;15.60;99.90;;;;;;5085257;28;20958;-86
2022/04/25 10:13:36;;;;;;;16.63;14.83;;;15.40;99.90;;;;;;5085935;28;20431;-87
2022/04/25 10:16:06;;;;;;;17.67;14.83;;;15.30;99.90;;;;;;5091512;28;20410;-87
2022/04/25 10:18:37;;;;;;;16.87;14.20;;;15.30;99.90;;;;;;5098666;28;20420;-88
2022/04/25 10:21:07;;;;;;;15.53;13.93;;;15.50;99.90;;;;;;5092128;28;20462;-86
2022/04/25 10:23:34;;;;;;;16.97;15.17;;;15.40;99.90;;;;;;5097037;28;20510;-88
2022/04/25 10:26:02;;;;;;;15.67;14.07;;;15.30;99.90;;;;;;5097244;28;20436;-86
2022/04/25 10:28:33;;;;;;;15.40;13.33;;;15.20;99.90;;;;;;5093884;28;20573;-88
2022/04/25 10:31:23;;;;;;;16.00;13.83;;;15.10;99.90;;;;;;5089420;28;20476;-88
2022/04/25 10:34:23;;;;;;;16.10;13.90;;;15.30;99.90;;;;;;5086138;28;20419;-88
2022/04/25 10:36:57;;;;;;;15.73;14.03;;;15.60;99.90;;;;;;5087569;28;20460;-87
2022/04/25 10:39:32;;;;;;;14.20;12.53;;;15.80;99.90;;;;;;5091567;28;20460;-88
2022/04/25 10:45:01;;;;;;;14.93;13.23;;;16.00;99.90;;;;;;5091065;28;20876;-86
2022/04/25 10:48:08;;;;;;;17.77;14.23;;;16.00;99.90;;;;;;5085119;28;20519;-88
2022/04/25 10:51:12;;;;;;;19.50;16.40;;;16.00;99.90;;;;;;5084249;28;20485;-85
2022/04/25 10:54:00;;;;;;;14.17;12.50;;;16.20;99.90;;;;;;5082387;28;20426;-87
2022/04/25 10:56:34;;;;;;;18.80;16.80;;;16.20;99.90;;;;;;5084218;28;20478;-86
2022/04/25 10:59:23;;;;;;;17.27;14.20;;;16.00;99.90;;;;;;5085101;28;20466;-87
2022/04/25 11:01:53;;;;;;;15.50;13.90;;;15.90;99.90;;;;;;5083484;28;20447;-88
2022/04/25 11:04:23;;;;;;;17.40;15.60;;;16.00;99.90;;;;;;5083463;28;20494;-88
2022/04/25 11:07:19;;;;;;;15.20;13.50;;;16.10;99.90;;;;;;5082099;28;20395;-88
2022/04/25 11:09:48;;;;;;;16.83;15.10;;;16.20;99.90;;;;;;5086702;28;20447;-87
2022/04/25 11:12:15;;;;;;;19.00;15.47;;;16.10;99.90;;;;;;5087322;28;20438;-87
2022/04/25 11:14:57;;;;;;;16.33;14.27;;;16.30;99.90;;;;;;5088012;28;20523;-87
2022/04/25 11:17:26;;;;;;;15.60;13.43;;;16.30;99.90;;;;;;5087969;28;20478;-88
2022/04/25 11:19:54;;;;;;;17.00;14.97;;;16.60;99.90;;;;;;5090399;28;20498;-86
2022/04/25 11:22:54;;;;;;;18.03;16.13;;;16.70;99.90;;;;;;5084803;28;20489;-86
2022/04/25 11:25:42;;;;;;;19.13;14.80;;;16.60;99.90;;;;;;5082110;28;20508;-87
2022/04/25 11:28:12;;;;;;;16.73;14.50;;;16.70;99.90;;;;;;5085480;28;20480;-87
2022/04/25 11:30:41;;;;;;;15.23;13.53;;;16.50;99.90;;;;;;5089074;28;20530;-87
2022/04/25 11:33:09;;;;;;;16.43;14.40;;;16.60;99.90;;;;;;5084958;28;20452;-86
2022/04/25 11:35:37;;;;;;;14.90;13.40;;;16.80;99.90;;;;;;5083567;28;20444;-86
2022/04/25 11:38:05;;;;;;;15.67;14.07;;;16.90;99.90;;;;;;5083745;28;20447;-87
2022/04/25 11:40:35;;;;;;;15.00;13.47;;;16.70;99.90;;;;;;5087496;28;20475;-87
2022/04/25 11:43:06;;;;;;;18.30;14.00;;;16.60;99.90;;;;;;5083906;28;20444;-87
2022/04/25 11:45:34;;;;;;;22.77;16.07;;;16.40;99.90;;;;;;5084587;28;20519;-86
2022/04/25 11:48:01;;;;;;;21.60;17.57;;;16.30;99.90;;;;;;5083400;28;20452;-87
2022/04/25 11:50:31;;;;;;;17.20;14.17;;;16.40;99.90;;;;;;5082178;28;20502;-87
2022/04/25 11:52:59;;;;;;;14.40;12.90;;;16.30;99.90;;;;;;5083163;28;20422;-86
2022/04/25 11:55:34;;;;;;;15.13;12.77;;;16.30;99.90;;;;;;5085007;28;20527;-88
2022/04/25 11:58:04;;;;;;;15.90;14.20;;;16.00;99.90;;;;;;5082305;28;20426;-87
2022/04/25 12:00:34;;;;;;;16.17;13.90;;;15.70;99.90;;;;;;5081177;28;20511;-87
2022/04/25 12:03:03;;;;;;;16.53;14.80;;;15.30;99.90;;;;;;5081800;28;20442;-87
2022/04/25 12:05:33;;;;;;;16.30;14.57;;;14.80;99.90;;;;;;5081387;28;20453;-87
2022/04/25 12:16:18;;;;;;;17.37;15.50;;;14.50;99.90;;;;;;5081591;28;20447;-88
2022/04/25 12:18:51;;;;;;;18.10;16.17;;;14.50;99.90;;;;;;5081116;28;20521;-86
2022/04/25 12:21:18;;;;;;;17.70;15.77;;;14.50;99.90;;;;;;5081110;28;20548;-86
2022/04/25 12:23:50;;;;;;;19.60;17.60;;;14.50;99.90;;;;;;5081150;28;20439;-85
2022/04/25 12:26:18;;;;;;;21.40;18.33;;;14.50;99.90;;;;;;5092523;28;20402;-86
2022/04/25 12:31:39;;;;;;;21.00;16.17;;;14.50;99.90;;;;;;5092188;28;20443;-89
2022/04/25 12:34:07;;;;;;;19.63;17.53;;;14.70;99.90;;;;;;5089813;28;20428;-87
2022/04/25 12:36:36;;;;;;;18.27;16.30;;;15.00;99.90;;;;;;5092260;28;20418;-87
2022/04/25 12:39:11;;;;;;;17.83;15.97;;;15.10;99.90;;;;;;5087744;28;20434;-87
2022/04/25 12:41:39;;;;;;;18.57;15.00;;;15.30;99.90;;;;;;5087185;28;20452;-86
2022/04/25 12:44:19;;;;;;;14.93;13.43;;;15.20;99.90;;;;;;5087715;28;20499;-87
2022/04/25 12:46:47;;;;;;;17.77;15.87;;;15.50;99.90;;;;;;5087560;28;20406;-88
2022/04/25 12:49:20;;;;;;;16.07;14.33;;;15.60;99.90;;;;;;5087285;28;20444;-87
2022/04/25 12:52:04;;;;;;;17.63;15.70;;;15.60;99.90;;;;;;5085109;28;20436;-86
2022/04/25 12:54:32;;;;;;;18.00;14.43;;;15.40;99.90;;;;;;5098001;28;20399;-85
2022/04/25 12:57:13;;;;;;;17.50;15.63;;;15.50;99.90;;;;;;5098836;28;20407;-86
2022/04/25 12:59:42;;;;;;;17.23;15.40;;;15.40;99.90;;;;;;5096898;28;20474;-86
2022/04/25 13:02:13;;;;;;;16.37;13.87;;;15.40;99.90;;;;;;5099539;28;20433;-86
2022/04/25 13:04:52;;;;;;;16.10;13.80;;;15.70;99.90;;;;;;5095588;28;20487;-85
2022/04/25 13:07:20;;;;;;;17.43;14.40;;;15.70;99.90;;;;;;5087811;28;20448;-87
2022/04/25 13:09:48;;;;;;;17.17;15.20;;;15.60;99.90;;;;;;5085836;28;20439;-87
2022/04/25 13:12:20;;;;;;;16.83;14.77;;;15.80;99.90;;;;;;5085211;28;20448;-86
2022/04/25 13:14:48;;;;;;;16.93;14.50;;;15.90;99.90;;;;;;5084302;28;20420;-85
2022/04/25 13:17:15;;;;;;;15.10;13.30;;;16.00;99.90;;;;;;5083176;28;20463;-86
2022/04/25 13:19:43;;;;;;;13.17;11.70;;;16.20;99.90;;;;;;5091026;28;20489;-87
2022/04/25 13:22:10;;;;;;;16.37;11.83;;;16.30;99.90;;;;;;5093253;28;20432;-86
2022/04/25 13:24:37;;;;;;;12.10;10.77;;;16.40;99.90;;;;;;5084356;28;20511;-86
2022/04/25 13:27:06;;;;;;;12.40;11.10;;;16.40;99.90;;;;;;5085213;28;20475;-87
2022/04/25 13:29:36;;;;;;;12.03;10.93;;;16.60;99.90;;;;;;5085666;28;20506;-85